sensor_id;sensor_type;location;lat;lon;timestamp;P1;durP1;ratioP1;P2;durP2;ratioP2
38865;SDS011;62686;48.984;8.394;2023-04-24T00:02:05;2.50;;;1.00;;
38865;SDS011;62686;48.984;8.394;2023-04-24T00:04:37;1.00;;;0.90;;
38865;SDS011;62686;48.984;8.394;2023-04-24T00:07:06;2.13;;;0.90;;
38865;SDS011;62686;48.984;8.394;2023-04-24T00:09:35;2.10;;;0.90;;
38865;SDS011;62686;48.984;8.394;2023-04-24T00:12:03;4.27;;;1.53;;
38865;SDS011;62686;48.984;8.394;2023-04-24T00:14:32;3.77;;;1.10;;
38865;SDS011;62686;48.984;8.394;2023-04-24T00:17:01;2.83;;;1.20;;
38865;SDS011;62686;48.984;8.394;2023-04-24T00:19:31;2.50;;;0.87;;
38865;SDS011;62686;48.984;8.394;2023-04-24T00:22:00;2.93;;;1.00;;
38865;SDS011;62686;48.984;8.394;2023-04-24T00:24:29;2.07;;;0.87;;
38865;SDS011;62686;48.984;8.394;2023-04-24T00:26:57;2.50;;;1.00;;
38865;SDS011;62686;48.984;8.394;2023-04-24T00:29:27;2.03;;;0.90;;
38865;SDS011;62686;48.984;8.394;2023-04-24T00:31:55;2.70;;;0.83;;
38865;SDS011;62686;48.984;8.394;2023-04-24T00:34:24;2.87;;;0.90;;
38865;SDS011;62686;48.984;8.394;2023-04-24T00:36:53;1.30;;;0.90;;
38865;SDS011;62686;48.984;8.394;2023-04-24T00:39:22;0.93;;;0.73;;
38865;SDS011;62686;48.984;8.394;2023-04-24T00:41:50;3.87;;;1.00;;
38865;SDS011;62686;48.984;8.394;2023-04-24T00:44:18;3.70;;;0.97;;
38865;SDS011;62686;48.984;8.394;2023-04-24T00:46:47;1.53;;;0.80;;
38865;SDS011;62686;48.984;8.394;2023-04-24T00:49:18;1.77;;;0.73;;
38865;SDS011;62686;48.984;8.394;2023-04-24T00:51:46;4.20;;;0.90;;
38865;SDS011;62686;48.984;8.394;2023-04-24T00:54:17;1.80;;;0.95;;
38865;SDS011;62686;48.984;8.394;2023-04-24T00:56:45;4.63;;;1.07;;
38865;SDS011;62686;48.984;8.394;2023-04-24T00:59:14;1.83;;;0.80;;
38865;SDS011;62686;48.984;8.394;2023-04-24T01:01:44;1.33;;;1.00;;
38865;SDS011;62686;48.984;8.394;2023-04-24T01:04:12;2.07;;;0.83;;
38865;SDS011;62686;48.984;8.394;2023-04-24T01:06:41;1.30;;;0.80;;
38865;SDS011;62686;48.984;8.394;2023-04-24T01:09:11;2.77;;;0.90;;
38865;SDS011;62686;48.984;8.394;2023-04-24T01:11:43;2.00;;;1.00;;
38865;SDS011;62686;48.984;8.394;2023-04-24T01:14:11;1.80;;;1.10;;
38865;SDS011;62686;48.984;8.394;2023-04-24T01:16:40;1.87;;;0.90;;
38865;SDS011;62686;48.984;8.394;2023-04-24T01:19:08;1.40;;;0.90;;
38865;SDS011;62686;48.984;8.394;2023-04-24T01:21:38;4.93;;;0.70;;
38865;SDS011;62686;48.984;8.394;2023-04-24T01:24:11;1.47;;;1.00;;
38865;SDS011;62686;48.984;8.394;2023-04-24T01:26:39;1.97;;;1.00;;
38865;SDS011;62686;48.984;8.394;2023-04-24T01:29:08;1.70;;;0.90;;
38865;SDS011;62686;48.984;8.394;2023-04-24T01:31:36;3.50;;;0.90;;
38865;SDS011;62686;48.984;8.394;2023-04-24T01:34:05;2.00;;;1.10;;
38865;SDS011;62686;48.984;8.394;2023-04-24T01:36:34;2.00;;;1.00;;
38865;SDS011;62686;48.984;8.394;2023-04-24T01:39:03;1.87;;;1.17;;
38865;SDS011;62686;48.984;8.394;2023-04-24T01:41:33;1.67;;;1.00;;
38865;SDS011;62686;48.984;8.394;2023-04-24T01:44:01;0.80;;;0.70;;
38865;SDS011;62686;48.984;8.394;2023-04-24T01:46:30;3.00;;;1.03;;
38865;SDS011;62686;48.984;8.394;2023-04-24T01:49:01;1.10;;;0.80;;
38865;SDS011;62686;48.984;8.394;2023-04-24T01:51:29;2.60;;;1.07;;
38865;SDS011;62686;48.984;8.394;2023-04-24T01:53:57;1.27;;;1.00;;
38865;SDS011;62686;48.984;8.394;2023-04-24T01:56:26;2.67;;;1.20;;
38865;SDS011;62686;48.984;8.394;2023-04-24T01:58:58;2.70;;;0.90;;
38865;SDS011;62686;48.984;8.394;2023-04-24T02:01:29;1.67;;;0.80;;
38865;SDS011;62686;48.984;8.394;2023-04-24T02:04:02;2.00;;;1.00;;
38865;SDS011;62686;48.984;8.394;2023-04-24T02:06:31;2.93;;;1.10;;
38865;SDS011;62686;48.984;8.394;2023-04-24T02:08:59;1.20;;;1.00;;
38865;SDS011;62686;48.984;8.394;2023-04-24T02:11:29;2.43;;;1.00;;
38865;SDS011;62686;48.984;8.394;2023-04-24T02:13:58;1.23;;;0.83;;
38865;SDS011;62686;48.984;8.394;2023-04-24T02:16:27;2.43;;;1.07;;
38865;SDS011;62686;48.984;8.394;2023-04-24T02:18:59;1.67;;;1.10;;
38865;SDS011;62686;48.984;8.394;2023-04-24T02:21:27;2.63;;;0.90;;
38865;SDS011;62686;48.984;8.394;2023-04-24T02:23:57;3.47;;;1.00;;
38865;SDS011;62686;48.984;8.394;2023-04-24T02:26:25;1.60;;;1.10;;
38865;SDS011;62686;48.984;8.394;2023-04-24T02:28:53;3.63;;;0.90;;
38865;SDS011;62686;48.984;8.394;2023-04-24T02:31:23;1.97;;;0.97;;
38865;SDS011;62686;48.984;8.394;2023-04-24T02:33:51;2.17;;;0.90;;
38865;SDS011;62686;48.984;8.394;2023-04-24T02:36:19;3.43;;;0.90;;
38865;SDS011;62686;48.984;8.394;2023-04-24T02:38:48;1.30;;;0.90;;
38865;SDS011;62686;48.984;8.394;2023-04-24T02:41:16;2.93;;;0.83;;
38865;SDS011;62686;48.984;8.394;2023-04-24T02:43:45;3.13;;;1.10;;
38865;SDS011;62686;48.984;8.394;2023-04-24T02:46:16;2.83;;;0.97;;
38865;SDS011;62686;48.984;8.394;2023-04-24T02:48:46;3.10;;;1.10;;
38865;SDS011;62686;48.984;8.394;2023-04-24T02:51:14;2.40;;;1.10;;
38865;SDS011;62686;48.984;8.394;2023-04-24T02:53:42;4.05;;;1.02;;
38865;SDS011;62686;48.984;8.394;2023-04-24T02:56:10;3.53;;;1.30;;
38865;SDS011;62686;48.984;8.394;2023-04-24T02:58:39;2.97;;;1.20;;
38865;SDS011;62686;48.984;8.394;2023-04-24T03:01:08;3.50;;;1.40;;
38865;SDS011;62686;48.984;8.394;2023-04-24T03:03:37;1.30;;;1.00;;
38865;SDS011;62686;48.984;8.394;2023-04-24T03:06:07;1.57;;;1.20;;
38865;SDS011;62686;48.984;8.394;2023-04-24T03:08:35;2.87;;;1.30;;
38865;SDS011;62686;48.984;8.394;2023-04-24T03:11:04;6.70;;;1.20;;
38865;SDS011;62686;48.984;8.394;2023-04-24T03:13:32;2.63;;;1.20;;
38865;SDS011;62686;48.984;8.394;2023-04-24T03:16:01;3.53;;;1.20;;
38865;SDS011;62686;48.984;8.394;2023-04-24T03:18:29;1.37;;;1.00;;
38865;SDS011;62686;48.984;8.394;2023-04-24T03:20:57;1.53;;;1.10;;
38865;SDS011;62686;48.984;8.394;2023-04-24T03:23:27;2.10;;;1.20;;
38865;SDS011;62686;48.984;8.394;2023-04-24T03:25:55;2.77;;;1.30;;
38865;SDS011;62686;48.984;8.394;2023-04-24T03:28:23;1.43;;;1.10;;
38865;SDS011;62686;48.984;8.394;2023-04-24T03:30:52;2.57;;;1.40;;
38865;SDS011;62686;48.984;8.394;2023-04-24T03:33:20;1.23;;;1.13;;
38865;SDS011;62686;48.984;8.394;2023-04-24T03:35:49;5.43;;;1.60;;
38865;SDS011;62686;48.984;8.394;2023-04-24T03:38:17;3.67;;;1.43;;
38865;SDS011;62686;48.984;8.394;2023-04-24T03:40:47;3.97;;;1.20;;
38865;SDS011;62686;48.984;8.394;2023-04-24T03:43:15;3.10;;;1.40;;
38865;SDS011;62686;48.984;8.394;2023-04-24T03:45:43;2.80;;;1.63;;
38865;SDS011;62686;48.984;8.394;2023-04-24T03:48:11;4.53;;;1.80;;
38865;SDS011;62686;48.984;8.394;2023-04-24T03:50:39;3.40;;;1.83;;
38865;SDS011;62686;48.984;8.394;2023-04-24T03:53:08;1.83;;;1.57;;
38865;SDS011;62686;48.984;8.394;2023-04-24T03:55:36;6.27;;;2.30;;
38865;SDS011;62686;48.984;8.394;2023-04-24T03:58:06;3.47;;;1.90;;
38865;SDS011;62686;48.984;8.394;2023-04-24T04:00:34;2.43;;;1.73;;
38865;SDS011;62686;48.984;8.394;2023-04-24T04:03:03;3.23;;;2.30;;
38865;SDS011;62686;48.984;8.394;2023-04-24T04:05:32;4.37;;;1.67;;
38865;SDS011;62686;48.984;8.394;2023-04-24T04:08:00;2.43;;;1.70;;
38865;SDS011;62686;48.984;8.394;2023-04-24T04:10:28;2.17;;;1.60;;
38865;SDS011;62686;48.984;8.394;2023-04-24T04:12:56;2.00;;;1.60;;
38865;SDS011;62686;48.984;8.394;2023-04-24T04:15:26;1.77;;;1.67;;
38865;SDS011;62686;48.984;8.394;2023-04-24T04:17:54;6.07;;;1.80;;
38865;SDS011;62686;48.984;8.394;2023-04-24T04:20:23;2.30;;;1.50;;
38865;SDS011;62686;48.984;8.394;2023-04-24T04:22:51;3.20;;;1.80;;
38865;SDS011;62686;48.984;8.394;2023-04-24T04:25:19;1.70;;;1.60;;
38865;SDS011;62686;48.984;8.394;2023-04-24T04:27:49;3.10;;;2.00;;
38865;SDS011;62686;48.984;8.394;2023-04-24T04:30:17;4.03;;;1.70;;
38865;SDS011;62686;48.984;8.394;2023-04-24T04:32:48;4.83;;;1.60;;
38865;SDS011;62686;48.984;8.394;2023-04-24T04:35:17;2.53;;;1.90;;
38865;SDS011;62686;48.984;8.394;2023-04-24T04:37:47;5.80;;;1.97;;
38865;SDS011;62686;48.984;8.394;2023-04-24T04:40:15;2.80;;;2.20;;
38865;SDS011;62686;48.984;8.394;2023-04-24T04:42:43;2.77;;;2.10;;
38865;SDS011;62686;48.984;8.394;2023-04-24T04:45:12;6.00;;;1.80;;
38865;SDS011;62686;48.984;8.394;2023-04-24T04:47:43;2.53;;;2.33;;
38865;SDS011;62686;48.984;8.394;2023-04-24T04:50:13;5.30;;;2.30;;
38865;SDS011;62686;48.984;8.394;2023-04-24T04:52:42;3.40;;;2.37;;
38865;SDS011;62686;48.984;8.394;2023-04-24T04:55:11;2.83;;;2.30;;
38865;SDS011;62686;48.984;8.394;2023-04-24T04:57:39;2.63;;;2.43;;
38865;SDS011;62686;48.984;8.394;2023-04-24T05:00:09;3.43;;;2.80;;
38865;SDS011;62686;48.984;8.394;2023-04-24T05:02:38;4.77;;;2.60;;
38865;SDS011;62686;48.984;8.394;2023-04-24T05:05:07;4.00;;;2.57;;
38865;SDS011;62686;48.984;8.394;2023-04-24T05:07:38;3.40;;;2.73;;
38865;SDS011;62686;48.984;8.394;2023-04-24T05:10:07;2.93;;;2.10;;
38865;SDS011;62686;48.984;8.394;2023-04-24T05:12:36;2.97;;;2.67;;
38865;SDS011;62686;48.984;8.394;2023-04-24T05:15:06;2.67;;;2.47;;
38865;SDS011;62686;48.984;8.394;2023-04-24T05:17:35;2.67;;;2.33;;
38865;SDS011;62686;48.984;8.394;2023-04-24T05:20:04;2.23;;;1.90;;
38865;SDS011;62686;48.984;8.394;2023-04-24T05:22:33;2.67;;;2.20;;
38865;SDS011;62686;48.984;8.394;2023-04-24T05:25:06;2.10;;;1.90;;
38865;SDS011;62686;48.984;8.394;2023-04-24T05:27:35;2.00;;;1.57;;
38865;SDS011;62686;48.984;8.394;2023-04-24T05:30:03;2.23;;;1.50;;
38865;SDS011;62686;48.984;8.394;2023-04-24T05:32:32;3.30;;;1.43;;
38865;SDS011;62686;48.984;8.394;2023-04-24T05:35:01;4.17;;;1.50;;
38865;SDS011;62686;48.984;8.394;2023-04-24T05:37:29;1.98;;;1.45;;
38865;SDS011;62686;48.984;8.394;2023-04-24T05:39:57;1.50;;;1.40;;
38865;SDS011;62686;48.984;8.394;2023-04-24T05:42:29;2.10;;;1.73;;
38865;SDS011;62686;48.984;8.394;2023-04-24T05:44:57;3.60;;;1.60;;
38865;SDS011;62686;48.984;8.394;2023-04-24T05:47:25;4.70;;;1.30;;
38865;SDS011;62686;48.984;8.394;2023-04-24T05:49:54;1.77;;;1.57;;
38865;SDS011;62686;48.984;8.394;2023-04-24T05:52:22;4.07;;;1.63;;
38865;SDS011;62686;48.984;8.394;2023-04-24T05:54:50;1.88;;;1.33;;
38865;SDS011;62686;48.984;8.394;2023-04-24T05:57:19;2.97;;;1.67;;
38865;SDS011;62686;48.984;8.394;2023-04-24T05:59:48;3.45;;;1.40;;
38865;SDS011;62686;48.984;8.394;2023-04-24T06:02:17;2.97;;;1.27;;
38865;SDS011;62686;48.984;8.394;2023-04-24T06:04:46;1.80;;;1.33;;
38865;SDS011;62686;48.984;8.394;2023-04-24T06:07:14;3.78;;;1.65;;
38865;SDS011;62686;48.984;8.394;2023-04-24T06:09:43;1.42;;;1.23;;
38865;SDS011;62686;48.984;8.394;2023-04-24T06:12:11;2.00;;;1.30;;
38865;SDS011;62686;48.984;8.394;2023-04-24T06:14:39;3.13;;;1.33;;
38865;SDS011;62686;48.984;8.394;2023-04-24T06:17:09;1.50;;;1.30;;
38865;SDS011;62686;48.984;8.394;2023-04-24T06:19:37;2.35;;;1.75;;
38865;SDS011;62686;48.984;8.394;2023-04-24T06:22:05;1.95;;;1.33;;
38865;SDS011;62686;48.984;8.394;2023-04-24T06:24:34;3.88;;;1.52;;
38865;SDS011;62686;48.984;8.394;2023-04-24T06:27:02;5.95;;;1.75;;
38865;SDS011;62686;48.984;8.394;2023-04-24T06:29:31;2.17;;;1.50;;
38865;SDS011;62686;48.984;8.394;2023-04-24T06:32:00;2.10;;;1.52;;
38865;SDS011;62686;48.984;8.394;2023-04-24T06:34:30;2.90;;;1.50;;
38865;SDS011;62686;48.984;8.394;2023-04-24T06:37:00;4.38;;;1.50;;
38865;SDS011;62686;48.984;8.394;2023-04-24T06:39:29;3.63;;;1.67;;
38865;SDS011;62686;48.984;8.394;2023-04-24T06:41:58;1.98;;;1.50;;
38865;SDS011;62686;48.984;8.394;2023-04-24T06:44:26;2.38;;;1.50;;
38865;SDS011;62686;48.984;8.394;2023-04-24T06:46:55;2.30;;;1.30;;
38865;SDS011;62686;48.984;8.394;2023-04-24T06:49:23;2.25;;;1.33;;
38865;SDS011;62686;48.984;8.394;2023-04-24T06:51:52;3.20;;;1.90;;
38865;SDS011;62686;48.984;8.394;2023-04-24T06:54:21;2.67;;;1.40;;
38865;SDS011;62686;48.984;8.394;2023-04-24T06:56:49;1.33;;;1.20;;
38865;SDS011;62686;48.984;8.394;2023-04-24T06:59:18;3.28;;;1.80;;
38865;SDS011;62686;48.984;8.394;2023-04-24T07:01:47;2.63;;;1.33;;
38865;SDS011;62686;48.984;8.394;2023-04-24T07:04:15;2.15;;;1.38;;
38865;SDS011;62686;48.984;8.394;2023-04-24T07:06:43;2.15;;;1.60;;
38865;SDS011;62686;48.984;8.394;2023-04-24T07:09:14;2.10;;;1.45;;
38865;SDS011;62686;48.984;8.394;2023-04-24T07:11:44;1.85;;;1.35;;
38865;SDS011;62686;48.984;8.394;2023-04-24T07:14:13;2.50;;;1.42;;
38865;SDS011;62686;48.984;8.394;2023-04-24T07:16:41;1.40;;;1.30;;
38865;SDS011;62686;48.984;8.394;2023-04-24T07:19:10;1.55;;;1.20;;
38865;SDS011;62686;48.984;8.394;2023-04-24T07:21:40;2.08;;;1.40;;
38865;SDS011;62686;48.984;8.394;2023-04-24T07:24:08;1.67;;;1.50;;
38865;SDS011;62686;48.984;8.394;2023-04-24T07:26:40;2.65;;;1.50;;
38865;SDS011;62686;48.984;8.394;2023-04-24T07:29:09;2.38;;;1.60;;
38865;SDS011;62686;48.984;8.394;2023-04-24T07:31:38;3.28;;;1.27;;
38865;SDS011;62686;48.984;8.394;2023-04-24T07:34:09;2.05;;;1.40;;
38865;SDS011;62686;48.984;8.394;2023-04-24T07:36:37;2.50;;;1.40;;
38865;SDS011;62686;48.984;8.394;2023-04-24T07:39:05;2.78;;;1.30;;
38865;SDS011;62686;48.984;8.394;2023-04-24T07:41:34;2.15;;;1.10;;
38865;SDS011;62686;48.984;8.394;2023-04-24T07:44:04;2.17;;;1.40;;
38865;SDS011;62686;48.984;8.394;2023-04-24T07:46:34;1.30;;;1.05;;
38865;SDS011;62686;48.984;8.394;2023-04-24T07:49:02;7.07;;;1.38;;
38865;SDS011;62686;48.984;8.394;2023-04-24T07:51:37;2.00;;;1.15;;
38865;SDS011;62686;48.984;8.394;2023-04-24T07:54:05;5.18;;;1.30;;
38865;SDS011;62686;48.984;8.394;2023-04-24T07:56:33;2.60;;;1.13;;
38865;SDS011;62686;48.984;8.394;2023-04-24T07:59:08;2.58;;;1.13;;
38865;SDS011;62686;48.984;8.394;2023-04-24T08:01:37;2.97;;;1.20;;
38865;SDS011;62686;48.984;8.394;2023-04-24T08:04:05;1.90;;;1.20;;
38865;SDS011;62686;48.984;8.394;2023-04-24T08:06:35;4.53;;;1.38;;
38865;SDS011;62686;48.984;8.394;2023-04-24T08:09:06;3.40;;;1.30;;
38865;SDS011;62686;48.984;8.394;2023-04-24T08:11:34;2.63;;;1.73;;
38865;SDS011;62686;48.984;8.394;2023-04-24T08:14:08;3.53;;;1.60;;
38865;SDS011;62686;48.984;8.394;2023-04-24T08:16:39;2.92;;;1.42;;
38865;SDS011;62686;48.984;8.394;2023-04-24T08:19:11;3.67;;;1.40;;
38865;SDS011;62686;48.984;8.394;2023-04-24T08:21:40;1.73;;;1.25;;
38865;SDS011;62686;48.984;8.394;2023-04-24T08:24:15;2.92;;;1.30;;
38865;SDS011;62686;48.984;8.394;2023-04-24T08:26:43;2.50;;;1.30;;
38865;SDS011;62686;48.984;8.394;2023-04-24T08:29:13;7.40;;;1.25;;
38865;SDS011;62686;48.984;8.394;2023-04-24T08:31:44;2.45;;;1.70;;
38865;SDS011;62686;48.984;8.394;2023-04-24T08:34:12;4.53;;;1.55;;
38865;SDS011;62686;48.984;8.394;2023-04-24T08:36:40;2.30;;;1.60;;
38865;SDS011;62686;48.984;8.394;2023-04-24T08:39:12;4.13;;;1.60;;
38865;SDS011;62686;48.984;8.394;2023-04-24T08:41:41;2.37;;;1.40;;
38865;SDS011;62686;48.984;8.394;2023-04-24T08:44:13;2.83;;;1.30;;
38865;SDS011;62686;48.984;8.394;2023-04-24T08:46:43;1.93;;;1.40;;
38865;SDS011;62686;48.984;8.394;2023-04-24T08:49:14;2.70;;;1.60;;
38865;SDS011;62686;48.984;8.394;2023-04-24T08:51:45;3.37;;;1.40;;
38865;SDS011;62686;48.984;8.394;2023-04-24T08:54:14;2.85;;;1.35;;
38865;SDS011;62686;48.984;8.394;2023-04-24T08:56:45;1.92;;;1.15;;
38865;SDS011;62686;48.984;8.394;2023-04-24T08:59:23;2.10;;;1.30;;
38865;SDS011;62686;48.984;8.394;2023-04-24T09:01:54;2.83;;;1.10;;
38865;SDS011;62686;48.984;8.394;2023-04-24T09:04:23;3.90;;;1.30;;
38865;SDS011;62686;48.984;8.394;2023-04-24T09:06:54;4.32;;;1.20;;
38865;SDS011;62686;48.984;8.394;2023-04-24T09:09:24;4.53;;;1.17;;
38865;SDS011;62686;48.984;8.394;2023-04-24T09:11:52;3.03;;;1.20;;
38865;SDS011;62686;48.984;8.394;2023-04-24T09:14:23;1.70;;;1.00;;
38865;SDS011;62686;48.984;8.394;2023-04-24T09:16:53;2.50;;;1.27;;
38865;SDS011;62686;48.984;8.394;2023-04-24T09:19:22;2.72;;;1.25;;
38865;SDS011;62686;48.984;8.394;2023-04-24T09:21:50;4.85;;;1.20;;
38865;SDS011;62686;48.984;8.394;2023-04-24T09:24:21;3.28;;;1.20;;
38865;SDS011;62686;48.984;8.394;2023-04-24T09:26:55;2.22;;;1.15;;
38865;SDS011;62686;48.984;8.394;2023-04-24T09:29:26;2.28;;;1.30;;
38865;SDS011;62686;48.984;8.394;2023-04-24T09:31:55;2.70;;;1.42;;
38865;SDS011;62686;48.984;8.394;2023-04-24T09:34:24;2.33;;;1.77;;
38865;SDS011;62686;48.984;8.394;2023-04-24T09:36:53;2.35;;;1.80;;
38865;SDS011;62686;48.984;8.394;2023-04-24T09:39:22;3.80;;;2.00;;
38865;SDS011;62686;48.984;8.394;2023-04-24T09:41:51;3.67;;;2.00;;
38865;SDS011;62686;48.984;8.394;2023-04-24T09:44:20;4.68;;;1.85;;
38865;SDS011;62686;48.984;8.394;2023-04-24T09:46:51;2.55;;;1.67;;
38865;SDS011;62686;48.984;8.394;2023-04-24T09:49:22;2.45;;;1.88;;
38865;SDS011;62686;48.984;8.394;2023-04-24T09:51:51;2.00;;;1.80;;
38865;SDS011;62686;48.984;8.394;2023-04-24T09:54:29;2.97;;;1.83;;
38865;SDS011;62686;48.984;8.394;2023-04-24T09:56:57;2.00;;;1.65;;
38865;SDS011;62686;48.984;8.394;2023-04-24T09:59:27;3.67;;;1.65;;
38865;SDS011;62686;48.984;8.394;2023-04-24T10:01:57;2.70;;;1.60;;
38865;SDS011;62686;48.984;8.394;2023-04-24T10:04:26;2.63;;;1.35;;
38865;SDS011;62686;48.984;8.394;2023-04-24T10:06:56;1.95;;;1.40;;
38865;SDS011;62686;48.984;8.394;2023-04-24T10:09:26;5.07;;;1.38;;
38865;SDS011;62686;48.984;8.394;2023-04-24T10:11:54;5.90;;;1.42;;
38865;SDS011;62686;48.984;8.394;2023-04-24T10:14:24;1.45;;;1.17;;
38865;SDS011;62686;48.984;8.394;2023-04-24T10:16:53;1.52;;;1.13;;
38865;SDS011;62686;48.984;8.394;2023-04-24T10:19:25;3.53;;;1.40;;
38865;SDS011;62686;48.984;8.394;2023-04-24T10:21:53;2.75;;;1.48;;
38865;SDS011;62686;48.984;8.394;2023-04-24T10:24:23;3.78;;;1.73;;
38865;SDS011;62686;48.984;8.394;2023-04-24T10:26:55;1.70;;;1.60;;
38865;SDS011;62686;48.984;8.394;2023-04-24T10:29:24;2.05;;;1.60;;
38865;SDS011;62686;48.984;8.394;2023-04-24T10:31:53;2.10;;;1.40;;
38865;SDS011;62686;48.984;8.394;2023-04-24T10:34:21;2.53;;;1.67;;
38865;SDS011;62686;48.984;8.394;2023-04-24T10:36:51;2.05;;;1.52;;
38865;SDS011;62686;48.984;8.394;2023-04-24T10:39:22;4.32;;;1.80;;
38865;SDS011;62686;48.984;8.394;2023-04-24T10:41:51;3.13;;;1.80;;
38865;SDS011;62686;48.984;8.394;2023-04-24T10:44:19;2.70;;;2.08;;
38865;SDS011;62686;48.984;8.394;2023-04-24T10:46:52;4.53;;;2.00;;
38865;SDS011;62686;48.984;8.394;2023-04-24T10:49:29;3.22;;;1.90;;
38865;SDS011;62686;48.984;8.394;2023-04-24T10:52:00;5.32;;;2.00;;
38865;SDS011;62686;48.984;8.394;2023-04-24T10:54:34;2.80;;;1.75;;
38865;SDS011;62686;48.984;8.394;2023-04-24T11:02:53;3.07;;;1.80;;
38865;SDS011;62686;48.984;8.394;2023-04-24T11:08:22;4.83;;;2.00;;
38865;SDS011;62686;48.984;8.394;2023-04-24T11:10:57;3.03;;;1.97;;
38865;SDS011;62686;48.984;8.394;2023-04-24T11:16:36;3.67;;;2.60;;
38865;SDS011;62686;48.984;8.394;2023-04-24T11:19:17;3.60;;;2.23;;
38865;SDS011;62686;48.984;8.394;2023-04-24T11:21:54;4.13;;;2.40;;
38865;SDS011;62686;48.984;8.394;2023-04-24T11:24:37;4.70;;;2.20;;
38865;SDS011;62686;48.984;8.394;2023-04-24T11:27:19;2.70;;;2.50;;
38865;SDS011;62686;48.984;8.394;2023-04-24T11:29:49;3.17;;;2.57;;
38865;SDS011;62686;48.984;8.394;2023-04-24T11:32:29;3.43;;;2.90;;
38865;SDS011;62686;48.984;8.394;2023-04-24T11:35:03;6.00;;;3.30;;
38865;SDS011;62686;48.984;8.394;2023-04-24T11:37:35;4.70;;;3.20;;
38865;SDS011;62686;48.984;8.394;2023-04-24T11:40:07;4.93;;;2.97;;
38865;SDS011;62686;48.984;8.394;2023-04-24T11:42:37;7.20;;;3.83;;
38865;SDS011;62686;48.984;8.394;2023-04-24T11:47:48;6.43;;;3.60;;
38865;SDS011;62686;48.984;8.394;2023-04-24T11:50:20;7.40;;;4.30;;
38865;SDS011;62686;48.984;8.394;2023-04-24T11:52:51;4.73;;;4.20;;
38865;SDS011;62686;48.984;8.394;2023-04-24T11:55:23;6.03;;;3.53;;
38865;SDS011;62686;48.984;8.394;2023-04-24T11:57:56;4.70;;;3.93;;
38865;SDS011;62686;48.984;8.394;2023-04-24T12:00:26;6.00;;;3.83;;
38865;SDS011;62686;48.984;8.394;2023-04-24T12:03:03;4.30;;;3.40;;
38865;SDS011;62686;48.984;8.394;2023-04-24T12:05:33;5.77;;;3.67;;
38865;SDS011;62686;48.984;8.394;2023-04-24T12:08:04;2.58;;;2.10;;
38865;SDS011;62686;48.984;8.394;2023-04-24T12:10:33;2.88;;;2.20;;
38865;SDS011;62686;48.984;8.394;2023-04-24T12:13:02;1.98;;;1.77;;
38865;SDS011;62686;48.984;8.394;2023-04-24T12:15:30;3.75;;;1.70;;
38865;SDS011;62686;48.984;8.394;2023-04-24T12:17:58;1.60;;;1.50;;
38865;SDS011;62686;48.984;8.394;2023-04-24T12:20:28;2.83;;;2.03;;
38865;SDS011;62686;48.984;8.394;2023-04-24T12:22:59;3.50;;;2.05;;
38865;SDS011;62686;48.984;8.394;2023-04-24T12:25:35;5.53;;;2.00;;
38865;SDS011;62686;48.984;8.394;2023-04-24T12:28:10;3.90;;;1.92;;
38865;SDS011;62686;48.984;8.394;2023-04-24T12:30:46;2.92;;;2.40;;
38865;SDS011;62686;48.984;8.394;2023-04-24T12:33:18;3.30;;;2.22;;
38865;SDS011;62686;48.984;8.394;2023-04-24T12:35:52;3.95;;;2.13;;
38865;SDS011;62686;48.984;8.394;2023-04-24T12:38:45;3.20;;;2.22;;
38865;SDS011;62686;48.984;8.394;2023-04-24T12:41:15;3.92;;;1.80;;
38865;SDS011;62686;48.984;8.394;2023-04-24T12:43:51;3.10;;;2.30;;
38865;SDS011;62686;48.984;8.394;2023-04-24T12:46:23;2.63;;;1.70;;
38865;SDS011;62686;48.984;8.394;2023-04-24T12:48:56;3.50;;;2.05;;
38865;SDS011;62686;48.984;8.394;2023-04-24T12:51:24;3.53;;;2.30;;
38865;SDS011;62686;48.984;8.394;2023-04-24T12:53:53;2.50;;;1.95;;
38865;SDS011;62686;48.984;8.394;2023-04-24T12:56:23;1.83;;;1.70;;
38865;SDS011;62686;48.984;8.394;2023-04-24T12:58:52;2.78;;;2.33;;
38865;SDS011;62686;48.984;8.394;2023-04-24T13:01:40;3.60;;;2.65;;
38865;SDS011;62686;48.984;8.394;2023-04-24T13:04:10;4.75;;;2.63;;
38865;SDS011;62686;48.984;8.394;2023-04-24T13:06:38;4.57;;;2.70;;
38865;SDS011;62686;48.984;8.394;2023-04-24T13:09:07;3.63;;;2.65;;
38865;SDS011;62686;48.984;8.394;2023-04-24T13:11:44;3.58;;;2.60;;
38865;SDS011;62686;48.984;8.394;2023-04-24T13:16:50;3.65;;;2.72;;
38865;SDS011;62686;48.984;8.394;2023-04-24T13:19:18;3.13;;;2.83;;
38865;SDS011;62686;48.984;8.394;2023-04-24T13:21:47;4.15;;;2.28;;
38865;SDS011;62686;48.984;8.394;2023-04-24T13:24:16;4.88;;;2.13;;
38865;SDS011;62686;48.984;8.394;2023-04-24T13:26:46;2.05;;;1.80;;
38865;SDS011;62686;48.984;8.394;2023-04-24T13:29:14;3.83;;;2.20;;
38865;SDS011;62686;48.984;8.394;2023-04-24T13:31:42;2.08;;;1.70;;
38865;SDS011;62686;48.984;8.394;2023-04-24T13:34:10;3.78;;;2.10;;
38865;SDS011;62686;48.984;8.394;2023-04-24T13:36:39;2.85;;;1.88;;
38865;SDS011;62686;48.984;8.394;2023-04-24T13:39:07;5.40;;;1.80;;
38865;SDS011;62686;48.984;8.394;2023-04-24T13:41:35;2.47;;;1.75;;
38865;SDS011;62686;48.984;8.394;2023-04-24T13:44:05;3.70;;;1.95;;
38865;SDS011;62686;48.984;8.394;2023-04-24T13:46:34;2.50;;;1.70;;
38865;SDS011;62686;48.984;8.394;2023-04-24T13:49:02;7.13;;;2.20;;
38865;SDS011;62686;48.984;8.394;2023-04-24T13:51:30;3.13;;;2.05;;
38865;SDS011;62686;48.984;8.394;2023-04-24T13:54:00;2.90;;;2.10;;
38865;SDS011;62686;48.984;8.394;2023-04-24T13:56:30;2.42;;;1.90;;
38865;SDS011;62686;48.984;8.394;2023-04-24T13:58:58;3.70;;;1.90;;
38865;SDS011;62686;48.984;8.394;2023-04-24T14:01:28;5.22;;;1.58;;
38865;SDS011;62686;48.984;8.394;2023-04-24T14:03:57;2.55;;;1.45;;
38865;SDS011;62686;48.984;8.394;2023-04-24T14:06:26;2.88;;;1.60;;
38865;SDS011;62686;48.984;8.394;2023-04-24T14:08:55;3.45;;;1.63;;
38865;SDS011;62686;48.984;8.394;2023-04-24T14:11:30;2.97;;;1.48;;
38865;SDS011;62686;48.984;8.394;2023-04-24T14:13:58;2.80;;;1.98;;
38865;SDS011;62686;48.984;8.394;2023-04-24T14:16:29;2.50;;;1.77;;
38865;SDS011;62686;48.984;8.394;2023-04-24T14:18:57;2.70;;;2.08;;
38865;SDS011;62686;48.984;8.394;2023-04-24T14:21:26;2.63;;;2.10;;
38865;SDS011;62686;48.984;8.394;2023-04-24T14:23:57;3.55;;;2.83;;
38865;SDS011;62686;48.984;8.394;2023-04-24T14:26:26;2.72;;;2.25;;
38865;SDS011;62686;48.984;8.394;2023-04-24T14:28:55;4.25;;;2.20;;
38865;SDS011;62686;48.984;8.394;2023-04-24T14:34:16;3.03;;;1.50;;
38865;SDS011;62686;48.984;8.394;2023-04-24T14:39:20;2.17;;;1.70;;
38865;SDS011;62686;48.984;8.394;2023-04-24T14:41:49;4.40;;;1.42;;
38865;SDS011;62686;48.984;8.394;2023-04-24T14:44:17;1.83;;;1.20;;
38865;SDS011;62686;48.984;8.394;2023-04-24T14:46:45;2.33;;;1.30;;
38865;SDS011;62686;48.984;8.394;2023-04-24T14:49:13;4.57;;;1.33;;
38865;SDS011;62686;48.984;8.394;2023-04-24T14:51:47;2.67;;;1.48;;
38865;SDS011;62686;48.984;8.394;2023-04-24T14:54:20;1.45;;;1.15;;
38865;SDS011;62686;48.984;8.394;2023-04-24T14:57:04;3.13;;;1.55;;
38865;SDS011;62686;48.984;8.394;2023-04-24T14:59:33;3.55;;;1.50;;
38865;SDS011;62686;48.984;8.394;2023-04-24T15:02:01;3.63;;;1.50;;
38865;SDS011;62686;48.984;8.394;2023-04-24T15:04:40;1.88;;;1.33;;
38865;SDS011;62686;48.984;8.394;2023-04-24T15:07:12;3.90;;;1.70;;
38865;SDS011;62686;48.984;8.394;2023-04-24T15:09:42;2.30;;;1.50;;
38865;SDS011;62686;48.984;8.394;2023-04-24T15:12:13;1.63;;;1.40;;
38865;SDS011;62686;48.984;8.394;2023-04-24T15:14:41;6.78;;;1.70;;
38865;SDS011;62686;48.984;8.394;2023-04-24T15:17:10;3.63;;;1.48;;
38865;SDS011;62686;48.984;8.394;2023-04-24T15:19:38;2.35;;;1.48;;
38865;SDS011;62686;48.984;8.394;2023-04-24T15:22:06;13.88;;;1.83;;
38865;SDS011;62686;48.984;8.394;2023-04-24T16:01:39;1.77;;;1.48;;
38865;SDS011;62686;48.984;8.394;2023-04-24T16:04:09;1.88;;;1.50;;